sensor_id;sensor_type;location;lat;lon;timestamp;pressure;altitude;pressure_sealevel;temperature;humidity
62150;BME280;48134;53.586;10.610;2022-09-16T00:01:47;99799.00;;;9.33;100.00
62150;BME280;48134;53.586;10.610;2022-09-16T00:04:20;99800.63;;;9.34;100.00
62150;BME280;48134;53.586;10.610;2022-09-16T00:06:54;99790.06;;;9.32;100.00
62150;BME280;48134;53.586;10.610;2022-09-16T00:09:27;99804.44;;;9.33;100.00
62150;BME280;48134;53.586;10.610;2022-09-16T00:12:00;99798.78;;;9.29;100.00
62150;BME280;48134;53.586;10.610;2022-09-16T00:14:33;99798.72;;;9.34;100.00
62150;BME280;48134;53.586;10.610;2022-09-16T00:17:05;99805.75;;;9.35;100.00
62150;BME280;48134;53.586;10.610;2022-09-16T00:19:38;99812.81;;;9.36;100.00
62150;BME280;48134;53.586;10.610;2022-09-16T00:22:12;99808.47;;;9.35;100.00
62150;BME280;48134;53.586;10.610;2022-09-16T00:24:40;99814.22;;;9.34;100.00
62150;BME280;48134;53.586;10.610;2022-09-16T00:27:13;99821.75;;;9.37;100.00
62150;BME280;48134;53.586;10.610;2022-09-16T00:29:41;99815.72;;;9.40;100.00
62150;BME280;48134;53.586;10.610;2022-09-16T00:32:14;99816.84;;;9.39;100.00
62150;BME280;48134;53.586;10.610;2022-09-16T00:34:46;99808.78;;;9.34;100.00
62150;BME280;48134;53.586;10.610;2022-09-16T00:37:20;99805.31;;;9.28;100.00
62150;BME280;48134;53.586;10.610;2022-09-16T00:39:53;99805.03;;;9.30;100.00
62150;BME280;48134;53.586;10.610;2022-09-16T00:42:26;99807.75;;;9.30;100.00
62150;BME280;48134;53.586;10.610;2022-09-16T00:45:00;99805.31;;;9.28;100.00
62150;BME280;48134;53.586;10.610;2022-09-16T00:47:37;99796.66;;;9.26;100.00
62150;BME280;48134;53.586;10.610;2022-09-16T00:50:13;99797.25;;;9.23;100.00
62150;BME280;48134;53.586;10.610;2022-09-16T00:52:49;99800.75;;;9.24;100.00
62150;BME280;48134;53.586;10.610;2022-09-16T00:55:20;99805.38;;;9.23;100.00
62150;BME280;48134;53.586;10.610;2022-09-16T00:57:56;99803.47;;;9.24;100.00
62150;BME280;48134;53.586;10.610;2022-09-16T01:00:31;99807.31;;;9.23;100.00
62150;BME280;48134;53.586;10.610;2022-09-16T01:03:04;99803.25;;;9.20;100.00
62150;BME280;48134;53.586;10.610;2022-09-16T01:05:37;99805.69;;;9.22;100.00
62150;BME280;48134;53.586;10.610;2022-09-16T01:08:06;99809.44;;;9.26;100.00
62150;BME280;48134;53.586;10.610;2022-09-16T01:10:34;99799.38;;;9.26;100.00
62150;BME280;48134;53.586;10.610;2022-09-16T01:13:08;99794.75;;;9.27;100.00
62150;BME280;48134;53.586;10.610;2022-09-16T01:15:43;99803.94;;;9.31;100.00
62150;BME280;48134;53.586;10.610;2022-09-16T01:18:20;99816.91;;;9.34;100.00
62150;BME280;48134;53.586;10.610;2022-09-16T01:20:58;99822.28;;;9.39;100.00
62150;BME280;48134;53.586;10.610;2022-09-16T01:23:52;99826.84;;;9.44;100.00
62150;BME280;48134;53.586;10.610;2022-09-16T01:26:37;99820.31;;;9.45;100.00
62150;BME280;48134;53.586;10.610;2022-09-16T01:32:11;99816.19;;;9.47;100.00
62150;BME280;48134;53.586;10.610;2022-09-16T01:34:48;99812.34;;;9.48;100.00
62150;BME280;48134;53.586;10.610;2022-09-16T01:37:19;99813.97;;;9.49;100.00
62150;BME280;48134;53.586;10.610;2022-09-16T01:39:53;99816.63;;;9.55;100.00
62150;BME280;48134;53.586;10.610;2022-09-16T01:42:27;99815.81;;;9.54;100.00
62150;BME280;48134;53.586;10.610;2022-09-16T01:45:03;99811.88;;;9.46;100.00
62150;BME280;48134;53.586;10.610;2022-09-16T01:47:40;99803.19;;;9.44;100.00
62150;BME280;48134;53.586;10.610;2022-09-16T01:50:13;99804.38;;;9.38;100.00
62150;BME280;48134;53.586;10.610;2022-09-16T01:52:45;99805.41;;;9.42;100.00
62150;BME280;48134;53.586;10.610;2022-09-16T01:55:22;99803.28;;;9.39;100.00
62150;BME280;48134;53.586;10.610;2022-09-16T01:57:52;99808.63;;;9.44;100.00
62150;BME280;48134;53.586;10.610;2022-09-16T02:00:21;99794.97;;;9.49;100.00
62150;BME280;48134;53.586;10.610;2022-09-16T02:02:57;99783.81;;;9.51;100.00
62150;BME280;48134;53.586;10.610;2022-09-16T02:05:32;99788.22;;;9.47;100.00
62150;BME280;48134;53.586;10.610;2022-09-16T02:08:06;99787.72;;;9.45;100.00
62150;BME280;48134;53.586;10.610;2022-09-16T02:10:40;99786.38;;;9.42;100.00
62150;BME280;48134;53.586;10.610;2022-09-16T02:13:14;99788.09;;;9.38;100.00
62150;BME280;48134;53.586;10.610;2022-09-16T02:15:50;99789.69;;;9.39;100.00
62150;BME280;48134;53.586;10.610;2022-09-16T02:18:26;99786.81;;;9.30;100.00
62150;BME280;48134;53.586;10.610;2022-09-16T02:21:01;99789.53;;;9.30;100.00
62150;BME280;48134;53.586;10.610;2022-09-16T02:23:31;99786.69;;;9.22;100.00
62150;BME280;48134;53.586;10.610;2022-09-16T02:26:01;99785.88;;;9.21;100.00
62150;BME280;48134;53.586;10.610;2022-09-16T02:28:38;99781.84;;;9.18;100.00
62150;BME280;48134;53.586;10.610;2022-09-16T02:31:13;99783.53;;;9.14;100.00
62150;BME280;48134;53.586;10.610;2022-09-16T02:33:44;99778.16;;;9.09;100.00
62150;BME280;48134;53.586;10.610;2022-09-16T02:36:15;99784.91;;;9.12;100.00
62150;BME280;48134;53.586;10.610;2022-09-16T02:38:45;99772.44;;;9.11;100.00
62150;BME280;48134;53.586;10.610;2022-09-16T02:41:19;99774.66;;;9.09;100.00
62150;BME280;48134;53.586;10.610;2022-09-16T02:43:47;99775.44;;;9.09;100.00
62150;BME280;48134;53.586;10.610;2022-09-16T02:46:18;99778.16;;;9.09;100.00
62150;BME280;48134;53.586;10.610;2022-09-16T02:48:56;99776.31;;;9.05;100.00
62150;BME280;48134;53.586;10.610;2022-09-16T02:51:28;99773.88;;;9.03;100.00
62150;BME280;48134;53.586;10.610;2022-09-16T02:54:04;99775.50;;;9.04;100.00
62150;BME280;48134;53.586;10.610;2022-09-16T02:56:36;99766.78;;;9.07;100.00
62150;BME280;48134;53.586;10.610;2022-09-16T02:59:05;99769.47;;;9.07;100.00
62150;BME280;48134;53.586;10.610;2022-09-16T03:01:41;99781.38;;;9.11;100.00
62150;BME280;48134;53.586;10.610;2022-09-16T03:04:10;99786.16;;;9.19;100.00
62150;BME280;48134;53.586;10.610;2022-09-16T03:06:44;99771.34;;;9.12;100.00
62150;BME280;48134;53.586;10.610;2022-09-16T03:09:17;99768.28;;;9.18;100.00
62150;BME280;48134;53.586;10.610;2022-09-16T03:11:59;99757.91;;;9.21;100.00
62150;BME280;48134;53.586;10.610;2022-09-16T03:14:50;99754.41;;;9.20;100.00
62150;BME280;48134;53.586;10.610;2022-09-16T03:17:27;99768.03;;;9.15;100.00
62150;BME280;48134;53.586;10.610;2022-09-16T03:20:07;99768.09;;;9.10;100.00
62150;BME280;48134;53.586;10.610;2022-09-16T03:22:42;99754.53;;;9.10;100.00
62150;BME280;48134;53.586;10.610;2022-09-16T03:25:17;99758.56;;;9.12;100.00
62150;BME280;48134;53.586;10.610;2022-09-16T03:27:56;99750.47;;;9.07;100.00
62150;BME280;48134;53.586;10.610;2022-09-16T03:30:25;99752.69;;;9.05;100.00
62150;BME280;48134;53.586;10.610;2022-09-16T03:32:53;99754.31;;;9.06;100.00
62150;BME280;48134;53.586;10.610;2022-09-16T03:35:30;99753.59;;;9.00;100.00
62150;BME280;48134;53.586;10.610;2022-09-16T03:38:04;99759.50;;;9.02;100.00
62150;BME280;48134;53.586;10.610;2022-09-16T03:40:33;99751.91;;;9.05;100.00
62150;BME280;48134;53.586;10.610;2022-09-16T03:43:08;99747.63;;;8.98;100.00
62150;BME280;48134;53.586;10.610;2022-09-16T03:45:41;99775.22;;;9.06;100.00
62150;BME280;48134;53.586;10.610;2022-09-16T03:48:14;99770.31;;;9.08;100.00
62150;BME280;48134;53.586;10.610;2022-09-16T03:50:43;99760.84;;;9.05;100.00
62150;BME280;48134;53.586;10.610;2022-09-16T03:53:17;99754.31;;;9.06;100.00
62150;BME280;48134;53.586;10.610;2022-09-16T03:55:46;99747.72;;;9.12;100.00
62150;BME280;48134;53.586;10.610;2022-09-16T03:58:19;99740.16;;;9.09;100.00
62150;BME280;48134;53.586;10.610;2022-09-16T04:00:52;99748.91;;;9.06;100.00
62150;BME280;48134;53.586;10.610;2022-09-16T04:03:25;99753.19;;;9.07;100.00
62150;BME280;48134;53.586;10.610;2022-09-16T04:05:54;99747.03;;;9.01;100.00
62150;BME280;48134;53.586;10.610;2022-09-16T04:08:27;99745.50;;;8.95;100.00
62150;BME280;48134;53.586;10.610;2022-09-16T04:10:56;99745.28;;;8.92;100.00
62150;BME280;48134;53.586;10.610;2022-09-16T04:13:30;99743.94;;;8.89;100.00
62150;BME280;48134;53.586;10.610;2022-09-16T04:15:58;99744.53;;;8.86;100.00
62150;BME280;48134;53.586;10.610;2022-09-16T04:18:26;99746.75;;;8.84;100.00
62150;BME280;48134;53.586;10.610;2022-09-16T04:20:58;99753.50;;;8.87;100.00
62150;BME280;48134;53.586;10.610;2022-09-16T04:23:31;99754.94;;;8.79;100.00
62150;BME280;48134;53.586;10.610;2022-09-16T04:25:59;99750.78;;;8.87;100.00
62150;BME280;48134;53.586;10.610;2022-09-16T04:28:28;99771.91;;;8.90;100.00
62150;BME280;48134;53.586;10.610;2022-09-16T04:30:58;99762.38;;;8.92;100.00
62150;BME280;48134;53.586;10.610;2022-09-16T04:33:26;99753.94;;;8.94;100.00
62150;BME280;48134;53.586;10.610;2022-09-16T04:36:01;99754.72;;;8.94;100.00
62150;BME280;48134;53.586;10.610;2022-09-16T04:38:34;99769.78;;;9.06;100.00
62150;BME280;48134;53.586;10.610;2022-09-16T04:41:08;99752.03;;;8.94;100.00
62150;BME280;48134;53.586;10.610;2022-09-16T04:43:36;99750.94;;;8.95;100.00
62150;BME280;48134;53.586;10.610;2022-09-16T04:46:10;99746.34;;;8.91;100.00
62150;BME280;48134;53.586;10.610;2022-09-16T04:48:45;99747.19;;;8.91;100.00
62150;BME280;48134;53.586;10.610;2022-09-16T04:51:14;99743.38;;;8.92;100.00
62150;BME280;48134;53.586;10.610;2022-09-16T04:53:48;99733.97;;;8.84;100.00
62150;BME280;48134;53.586;10.610;2022-09-16T04:56:22;99736.69;;;8.84;100.00
62150;BME280;48134;53.586;10.610;2022-09-16T04:58:57;99733.81;;;8.76;100.00
62150;BME280;48134;53.586;10.610;2022-09-16T05:01:26;99732.50;;;8.73;100.00
62150;BME280;48134;53.586;10.610;2022-09-16T05:03:56;99734.91;;;8.75;100.00
62150;BME280;48134;53.586;10.610;2022-09-16T05:06:31;99729.25;;;8.71;100.00
62150;BME280;48134;53.586;10.610;2022-09-16T05:08:59;99731.41;;;8.74;100.00
62150;BME280;48134;53.586;10.610;2022-09-16T05:11:28;99736.88;;;8.69;100.00
62150;BME280;48134;53.586;10.610;2022-09-16T05:13:57;99735.78;;;8.70;100.00
62150;BME280;48134;53.586;10.610;2022-09-16T05:16:25;99734.97;;;8.70;100.00
62150;BME280;48134;53.586;10.610;2022-09-16T05:18:55;99729.53;;;8.70;100.00
62150;BME280;48134;53.586;10.610;2022-09-16T05:21:28;99725.22;;;8.68;100.00
62150;BME280;48134;53.586;10.610;2022-09-16T05:23:59;99739.88;;;8.67;100.00
62150;BME280;48134;53.586;10.610;2022-09-16T05:26:28;99736.31;;;8.72;100.00
62150;BME280;48134;53.586;10.610;2022-09-16T05:28:58;99729.50;;;8.75;100.00
62150;BME280;48134;53.586;10.610;2022-09-16T05:31:32;99726.94;;;8.83;100.00
62150;BME280;48134;53.586;10.610;2022-09-16T05:34:01;99737.44;;;8.90;100.00
62150;BME280;48134;53.586;10.610;2022-09-16T05:36:30;99732.53;;;8.92;100.00
62150;BME280;48134;53.586;10.610;2022-09-16T05:39:05;99728.94;;;8.97;100.00
62150;BME280;48134;53.586;10.610;2022-09-16T05:41:38;99728.50;;;9.09;100.00
62150;BME280;48134;53.586;10.610;2022-09-16T05:44:06;99726.88;;;9.08;100.00
62150;BME280;48134;53.586;10.610;2022-09-16T05:46:34;99721.28;;;9.18;100.00
62150;BME280;48134;53.586;10.610;2022-09-16T05:49:02;99732.16;;;9.37;100.00
62150;BME280;48134;53.586;10.610;2022-09-16T05:51:29;99724.72;;;9.43;100.00
62150;BME280;48134;53.586;10.610;2022-09-16T05:53:58;99732.44;;;9.55;100.00
62150;BME280;48134;53.586;10.610;2022-09-16T05:56:32;99737.28;;;9.39;100.00
62150;BME280;48134;53.586;10.610;2022-09-16T05:59:05;99727.25;;;9.39;100.00
62150;BME280;48134;53.586;10.610;2022-09-16T06:01:34;99724.38;;;9.30;100.00
62150;BME280;48134;53.586;10.610;2022-09-16T06:04:02;99721.66;;;9.30;100.00
62150;BME280;48134;53.586;10.610;2022-09-16T06:06:36;99726.78;;;9.32;100.00
62150;BME280;48134;53.586;10.610;2022-09-16T06:09:10;99727.63;;;9.32;100.00
62150;BME280;48134;53.586;10.610;2022-09-16T06:11:41;99720.03;;;9.29;100.00
62150;BME280;48134;53.586;10.610;2022-09-16T06:14:09;99720.94;;;9.25;100.00
62150;BME280;48134;53.586;10.610;2022-09-16T06:16:42;99725.13;;;9.17;100.00
62150;BME280;48134;53.586;10.610;2022-09-16T06:19:16;99714.78;;;9.19;100.00
62150;BME280;48134;53.586;10.610;2022-09-16T06:21:49;99717.63;;;9.28;100.00
62150;BME280;48134;53.586;10.610;2022-09-16T06:24:17;99710.72;;;9.35;100.00
62150;BME280;48134;53.586;10.610;2022-09-16T06:26:52;99699.63;;;9.51;100.00
62150;BME280;48134;53.586;10.610;2022-09-16T06:29:25;99705.41;;;9.44;100.00
62150;BME280;48134;53.586;10.610;2022-09-16T06:31:58;99710.47;;;9.51;100.00
62150;BME280;48134;53.586;10.610;2022-09-16T06:34:30;99702.63;;;9.49;100.00
62150;BME280;48134;53.586;10.610;2022-09-16T06:36:58;99708.19;;;9.58;100.00
62150;BME280;48134;53.586;10.610;2022-09-16T06:39:32;99705.09;;;9.65;100.00
62150;BME280;48134;53.586;10.610;2022-09-16T06:42:12;99707.81;;;9.65;100.00
62150;BME280;48134;53.586;10.610;2022-09-16T06:44:40;99692.75;;;9.73;100.00
62150;BME280;48134;53.586;10.610;2022-09-16T06:47:12;99701.72;;;9.87;100.00
62150;BME280;48134;53.586;10.610;2022-09-16T06:49:45;99700.31;;;9.90;100.00
62150;BME280;48134;53.586;10.610;2022-09-16T06:52:18;99695.59;;;9.95;100.00
62150;BME280;48134;53.586;10.610;2022-09-16T06:54:51;99702.44;;;9.93;100.00
62150;BME280;48134;53.586;10.610;2022-09-16T06:57:25;99701.16;;;10.04;100.00
62150;BME280;48134;53.586;10.610;2022-09-16T06:59:53;99702.25;;;10.03;100.00
62150;BME280;48134;53.586;10.610;2022-09-16T07:02:21;99698.84;;;10.11;100.00
62150;BME280;48134;53.586;10.610;2022-09-16T07:04:49;99700.88;;;10.19;100.00
62150;BME280;48134;53.586;10.610;2022-09-16T07:07:22;99693.59;;;10.29;100.00
62150;BME280;48134;53.586;10.610;2022-09-16T07:09:54;99692.91;;;10.23;100.00
62150;BME280;48134;53.586;10.610;2022-09-16T07:12:22;99689.72;;;10.35;100.00
62150;BME280;48134;53.586;10.610;2022-09-16T07:14:52;99703.78;;;10.23;100.00
62150;BME280;48134;53.586;10.610;2022-09-16T07:17:24;99700.75;;;10.25;100.00
62150;BME280;48134;53.586;10.610;2022-09-16T07:19:57;99695.44;;;10.33;100.00
62150;BME280;48134;53.586;10.610;2022-09-16T07:22:31;99705.44;;;10.38;100.00
62150;BME280;48134;53.586;10.610;2022-09-16T07:25:15;99696.16;;;10.39;100.00
62150;BME280;48134;53.586;10.610;2022-09-16T07:27:58;99699.19;;;10.51;100.00
62150;BME280;48134;53.586;10.610;2022-09-16T07:30:27;99687.06;;;10.58;100.00
62150;BME280;48134;53.586;10.610;2022-09-16T07:32:59;99694.53;;;10.52;100.00
62150;BME280;48134;53.586;10.610;2022-09-16T07:35:32;99695.75;;;10.60;100.00
62150;BME280;48134;53.586;10.610;2022-09-16T07:38:06;99698.84;;;10.67;100.00
62150;BME280;48134;53.586;10.610;2022-09-16T07:40:35;99711.97;;;10.79;100.00
62150;BME280;48134;53.586;10.610;2022-09-16T07:43:11;99701.16;;;10.87;100.00
62150;BME280;48134;53.586;10.610;2022-09-16T07:45:40;99711.31;;;10.96;100.00
62150;BME280;48134;53.586;10.610;2022-09-16T07:48:13;99703.53;;;11.03;100.00
62150;BME280;48134;53.586;10.610;2022-09-16T07:50:52;99704.19;;;10.86;100.00
62150;BME280;48134;53.586;10.610;2022-09-16T07:53:26;99706.28;;;10.89;100.00
62150;BME280;48134;53.586;10.610;2022-09-16T07:55:55;99708.16;;;11.02;100.00
62150;BME280;48134;53.586;10.610;2022-09-16T07:58:28;99713.69;;;11.11;100.00
62150;BME280;48134;53.586;10.610;2022-09-16T08:01:02;99717.19;;;11.26;100.00
62150;BME280;48134;53.586;10.610;2022-09-16T08:03:36;99717.97;;;11.49;100.00
62150;BME280;48134;53.586;10.610;2022-09-16T08:06:05;99718.13;;;11.44;100.00
62150;BME280;48134;53.586;10.610;2022-09-16T08:08:39;99712.31;;;11.59;100.00
62150;BME280;48134;53.586;10.610;2022-09-16T08:11:12;99712.09;;;11.33;100.00
62150;BME280;48134;53.586;10.610;2022-09-16T08:13:45;99704.19;;;11.45;100.00
62150;BME280;48134;53.586;10.610;2022-09-16T08:16:20;99702.25;;;11.46;100.00
62150;BME280;48134;53.586;10.610;2022-09-16T08:18:49;99712.47;;;11.40;100.00
62150;BME280;48134;53.586;10.610;2022-09-16T08:21:18;99711.63;;;11.53;100.00
62150;BME280;48134;53.586;10.610;2022-09-16T08:23:52;99725.63;;;11.61;100.00
62150;BME280;48134;53.586;10.610;2022-09-16T08:26:20;99714.59;;;11.66;100.00
62150;BME280;48134;53.586;10.610;2022-09-16T08:28:53;99708.06;;;11.76;100.00
62150;BME280;48134;53.586;10.610;2022-09-16T08:31:27;99715.16;;;11.77;100.00
62150;BME280;48134;53.586;10.610;2022-09-16T08:33:55;99713.22;;;11.77;100.00
62150;BME280;48134;53.586;10.610;2022-09-16T08:36:28;99709.22;;;11.83;100.00
62150;BME280;48134;53.586;10.610;2022-09-16T08:39:03;99711.34;;;11.86;100.00
62150;BME280;48134;53.586;10.610;2022-09-16T08:41:35;99715.34;;;11.89;100.00
62150;BME280;48134;53.586;10.610;2022-09-16T08:44:14;99713.34;;;11.95;100.00
62150;BME280;48134;53.586;10.610;2022-09-16T08:46:46;99714.50;;;12.02;100.00
62150;BME280;48134;53.586;10.610;2022-09-16T08:49:18;99714.41;;;12.16;100.00
62150;BME280;48134;53.586;10.610;2022-09-16T08:51:53;99714.09;;;12.18;100.00
62150;BME280;48134;53.586;10.610;2022-09-16T08:54:24;99704.88;;;12.36;100.00
62150;BME280;48134;53.586;10.610;2022-09-16T08:56:58;99708.13;;;12.47;100.00
62150;BME280;48134;53.586;10.610;2022-09-16T08:59:34;99716.56;;;12.37;100.00
62150;BME280;48134;53.586;10.610;2022-09-16T09:02:20;99702.28;;;12.40;100.00
62150;BME280;48134;53.586;10.610;2022-09-16T09:04:50;99719.25;;;12.68;100.00
62150;BME280;48134;53.586;10.610;2022-09-16T09:07:21;99720.41;;;12.85;100.00
62150;BME280;48134;53.586;10.610;2022-09-16T09:09:54;99714.44;;;12.74;100.00
62150;BME280;48134;53.586;10.610;2022-09-16T09:12:28;99723.53;;;12.52;100.00
62150;BME280;48134;53.586;10.610;2022-09-16T09:15:11;99720.63;;;12.48;100.00
62150;BME280;48134;53.586;10.610;2022-09-16T09:17:50;99718.28;;;12.15;100.00
62150;BME280;48134;53.586;10.610;2022-09-16T09:20:28;99732.06;;;12.19;100.00
62150;BME280;48134;53.586;10.610;2022-09-16T09:23:09;99727.50;;;12.37;100.00
62150;BME280;48134;53.586;10.610;2022-09-16T09:25:41;99727.63;;;12.32;100.00
62150;BME280;48134;53.586;10.610;2022-09-16T09:28:21;99730.34;;;12.32;100.00
62150;BME280;48134;53.586;10.610;2022-09-16T09:30:52;99726.47;;;12.24;100.00
62150;BME280;48134;53.586;10.610;2022-09-16T09:33:42;99719.97;;;12.42;100.00
62150;BME280;48134;53.586;10.610;2022-09-16T09:41:46;99711.53;;;12.70;100.00
62150;BME280;48134;53.586;10.610;2022-09-16T09:44:32;99704.16;;;12.71;100.00
62150;BME280;48134;53.586;10.610;2022-09-16T09:47:02;99708.50;;;12.72;100.00
62150;BME280;48134;53.586;10.610;2022-09-16T09:49:34;99707.41;;;12.90;100.00
62150;BME280;48134;53.586;10.610;2022-09-16T09:52:04;99705.34;;;13.14;100.00
62150;BME280;48134;53.586;10.610;2022-09-16T09:54:34;99697.59;;;13.16;100.00
62150;BME280;48134;53.586;10.610;2022-09-16T09:57:09;99689.28;;;13.12;100.00
62150;BME280;48134;53.586;10.610;2022-09-16T09:59:41;99685.09;;;12.97;100.00
62150;BME280;48134;53.586;10.610;2022-09-16T10:02:12;99681.53;;;12.97;100.00
62150;BME280;48134;53.586;10.610;2022-09-16T10:04:47;99678.16;;;13.08;100.00
62150;BME280;48134;53.586;10.610;2022-09-16T10:07:16;99682.19;;;13.02;100.00
62150;BME280;48134;53.586;10.610;2022-09-16T10:09:50;99677.38;;;13.08;100.00
62150;BME280;48134;53.586;10.610;2022-09-16T10:12:26;99692.63;;;13.09;100.00
62150;BME280;48134;53.586;10.610;2022-09-16T10:14:54;99683.81;;;13.12;100.00
62150;BME280;48134;53.586;10.610;2022-09-16T10:17:23;99682.03;;;13.25;100.00
62150;BME280;48134;53.586;10.610;2022-09-16T10:19:54;99681.72;;;13.18;100.00
62150;BME280;48134;53.586;10.610;2022-09-16T10:22:23;99682.81;;;13.25;100.00
62150;BME280;48134;53.586;10.610;2022-09-16T10:24:54;99681.41;;;13.10;100.00
62150;BME280;48134;53.586;10.610;2022-09-16T10:27:23;99674.31;;;13.18;100.00
62150;BME280;48134;53.586;10.610;2022-09-16T10:30:03;99666.13;;;13.18;100.00
62150;BME280;48134;53.586;10.610;2022-09-16T10:32:39;99674.00;;;13.37;100.00
62150;BME280;48134;53.586;10.610;2022-09-16T10:35:19;99667.56;;;13.24;100.00
62150;BME280;48134;53.586;10.610;2022-09-16T10:37:49;99668.22;;;13.13;100.00
62150;BME280;48134;53.586;10.610;2022-09-16T10:40:23;99659.22;;;13.38;100.00
62150;BME280;48134;53.586;10.610;2022-09-16T10:42:55;99657.72;;;13.67;100.00
62150;BME280;48134;53.586;10.610;2022-09-16T10:45:33;99654.47;;;13.83;100.00
62150;BME280;48134;53.586;10.610;2022-09-16T10:48:10;99658.72;;;14.10;100.00
62150;BME280;48134;53.586;10.610;2022-09-16T10:50:52;99662.69;;;14.12;100.00
62150;BME280;48134;53.586;10.610;2022-09-16T10:53:21;99658.72;;;14.10;100.00
62150;BME280;48134;53.586;10.610;2022-09-16T10:55:55;99627.03;;;14.00;100.00
62150;BME280;48134;53.586;10.610;2022-09-16T10:58:36;99640.78;;;14.21;100.00
62150;BME280;48134;53.586;10.610;2022-09-16T11:01:12;99641.22;;;14.32;100.00
62150;BME280;48134;53.586;10.610;2022-09-16T11:06:45;99644.59;;;13.90;100.00
62150;BME280;48134;53.586;10.610;2022-09-16T11:09:24;99633.22;;;13.88;100.00
62150;BME280;48134;53.586;10.610;2022-09-16T11:12:07;99634.78;;;13.98;100.00
62150;BME280;48134;53.586;10.610;2022-09-16T11:14:42;99635.34;;;14.12;100.00
62150;BME280;48134;53.586;10.610;2022-09-16T11:17:21;99632.06;;;14.28;100.00
62150;BME280;48134;53.586;10.610;2022-09-16T11:20:01;99619.13;;;14.37;100.00
62150;BME280;48134;53.586;10.610;2022-09-16T11:22:35;99638.97;;;13.95;100.00
62150;BME280;48134;53.586;10.610;2022-09-16T11:25:15;99628.91;;;14.08;100.00
62150;BME280;48134;53.586;10.610;2022-09-16T11:27:53;99628.94;;;14.38;100.00
62150;BME280;48134;53.586;10.610;2022-09-16T11:30:25;99625.16;;;14.22;100.00
62150;BME280;48134;53.586;10.610;2022-09-16T11:33:04;99623.59;;;14.12;100.00
62150;BME280;48134;53.586;10.610;2022-09-16T11:35:46;99624.47;;;14.34;100.00
62150;BME280;48134;53.586;10.610;2022-09-16T11:38:24;99630.41;;;14.57;100.00
62150;BME280;48134;53.586;10.610;2022-09-16T11:41:07;99612.19;;;14.70;100.00
62150;BME280;48134;53.586;10.610;2022-09-16T11:43:48;99620.31;;;14.78;100.00
62150;BME280;48134;53.586;10.610;2022-09-16T11:46:20;99613.44;;;14.93;100.00
62150;BME280;48134;53.586;10.610;2022-09-16T11:48:58;99609.28;;;14.87;100.00
62150;BME280;48134;53.586;10.610;2022-09-16T11:51:40;99614.56;;;14.92;100.00
62150;BME280;48134;53.586;10.610;2022-09-16T11:54:26;99626.00;;;14.43;100.00
62150;BME280;48134;53.586;10.610;2022-09-16T11:57:06;99630.75;;;13.95;100.00
62150;BME280;48134;53.586;10.610;2022-09-16T11:59:41;99641.03;;;13.25;100.00
62150;BME280;48134;53.586;10.610;2022-09-16T12:02:19;99643.94;;;13.20;100.00
62150;BME280;48134;53.586;10.610;2022-09-16T12:04:56;99622.91;;;13.20;100.00
62150;BME280;48134;53.586;10.610;2022-09-16T12:07:31;99630.59;;;13.27;100.00
62150;BME280;48134;53.586;10.610;2022-09-16T12:10:11;99628.53;;;13.06;100.00
62150;BME280;48134;53.586;10.610;2022-09-16T12:12:47;99623.84;;;13.16;100.00
62150;BME280;48134;53.586;10.610;2022-09-16T12:15:22;99610.69;;;13.09;100.00
62150;BME280;48134;53.586;10.610;2022-09-16T12:17:57;99613.13;;;12.84;100.00
62150;BME280;48134;53.586;10.610;2022-09-16T12:20:28;99616.66;;;12.85;100.00
62150;BME280;48134;53.586;10.610;2022-09-16T12:22:59;99595.09;;;13.18;100.00
62150;BME280;48134;53.586;10.610;2022-09-16T12:25:32;99607.44;;;13.51;100.00
62150;BME280;48134;53.586;10.610;2022-09-16T12:28:04;99607.03;;;13.70;100.00
62150;BME280;48134;53.586;10.610;2022-09-16T12:30:43;99601.56;;;13.70;100.00
62150;BME280;48134;53.586;10.610;2022-09-16T12:33:18;99596.22;;;13.82;100.00
62150;BME280;48134;53.586;10.610;2022-09-16T12:35:54;99588.53;;;13.75;100.00
62150;BME280;48134;53.586;10.610;2022-09-16T12:38:28;99577.84;;;13.91;100.00
62150;BME280;48134;53.586;10.610;2022-09-16T12:41:02;99559.28;;;14.06;100.00
62150;BME280;48134;53.586;10.610;2022-09-16T12:43:40;99570.78;;;14.20;100.00
62150;BME280;48134;53.586;10.610;2022-09-16T12:46:14;99560.44;;;14.47;100.00
62150;BME280;48134;53.586;10.610;2022-09-16T12:48:53;99546.38;;;14.57;100.00
62150;BME280;48134;53.586;10.610;2022-09-16T12:51:30;99550.81;;;14.62;100.00
62150;BME280;48134;53.586;10.610;2022-09-16T12:54:18;99549.38;;;14.43;100.00
62150;BME280;48134;53.586;10.610;2022-09-16T12:57:04;99567.69;;;14.22;100.00
62150;BME280;48134;53.586;10.610;2022-09-16T12:59:45;99564.31;;;13.95;100.00
62150;BME280;48134;53.586;10.610;2022-09-16T13:02:22;99598.53;;;13.71;100.00
62150;BME280;48134;53.586;10.610;2022-09-16T13:04:56;99607.16;;;12.56;100.00
62150;BME280;48134;53.586;10.610;2022-09-16T13:07:32;99611.38;;;12.04;100.00
62150;BME280;48134;53.586;10.610;2022-09-16T13:10:14;99601.88;;;11.62;100.00
62150;BME280;48134;53.586;10.610;2022-09-16T13:12:49;99597.66;;;11.55;100.00
62150;BME280;48134;53.586;10.610;2022-09-16T13:15:22;99586.09;;;11.50;100.00
62150;BME280;48134;53.586;10.610;2022-09-16T13:17:50;99573.13;;;11.55;100.00
62150;BME280;48134;53.586;10.610;2022-09-16T13:20:25;99566.03;;;11.77;100.00
62150;BME280;48134;53.586;10.610;2022-09-16T13:23:04;99573.88;;;11.79;100.00
62150;BME280;48134;53.586;10.610;2022-09-16T13:25:42;99564.28;;;11.90;100.00
62150;BME280;48134;53.586;10.610;2022-09-16T13:28:25;99567.84;;;11.90;100.00
62150;BME280;48134;53.586;10.610;2022-09-16T13:34:01;99581.59;;;11.85;100.00